X  Sluiten METAR luchtvaart weer gegevens      EHAM Amsterdam Airport Schiphol
Temperatuur
8°C Temperatuur
3°C Dauwpunt
71% Vochtigheid



Wind
19 KM/U
12 MPH
5 M/S
10 KTS



10°
Noord
Huidig weer

Helder Helder
Luchtdruk 1027.92 (hPa) - 30.35 (inHg)
Zicht 6.2 (mijl) - 10 (km)
Vliegveld
Vliegveld code EHAM

Locatie : Amsterdam Airport Schiphol
Afstand: 20 (km)

Metar:
EHAM 161825Z 01010KT 320V040 CAVOK 08/03 Q1028 NOSIG

Tijd: 16-04-2021 20:25 CEST